createdAt,value
2019-03-11T00:04:36.577Z,-0.58
2019-03-11T00:13:12.205Z,-0.71
2019-03-11T00:15:42.798Z,-0.79
2019-03-11T00:18:13.663Z,-0.76
2019-03-11T00:24:05.586Z,-0.84
2019-03-11T00:35:24.386Z,-1.01
2019-03-11T00:44:00.219Z,-1.16
2019-03-11T00:49:33.225Z,-1.17
2019-03-11T00:58:08.640Z,-1.25
2019-03-11T01:12:10.247Z,-1.31
2019-03-11T01:20:25.966Z,-1.34
2019-03-11T01:25:59.392Z,-1.42
2019-03-11T01:36:59.864Z,-1.53
2019-03-11T01:39:31.307Z,-1.60
2019-03-11T01:45:04.849Z,-1.63
2019-03-11T01:50:37.815Z,-1.71
2019-03-11T01:58:56.243Z,-1.87
2019-03-11T02:09:56.380Z,-1.96
2019-03-11T02:12:28.455Z,-2.00
2019-03-11T02:14:58.741Z,-2.03
2019-03-11T02:17:29.073Z,-2.03
2019-03-11T02:19:59.396Z,-2.08
2019-03-11T02:22:29.638Z,-2.09
2019-03-11T02:24:59.930Z,-2.15
2019-03-11T02:27:30.163Z,-2.15
2019-03-11T02:30:00.546Z,-2.20
2019-03-11T02:32:37.886Z,-2.17
2019-03-11T02:38:26.399Z,-2.27
2019-03-11T02:40:56.672Z,-2.32
2019-03-11T02:43:26.967Z,-2.30
2019-03-11T02:45:57.257Z,-2.32
2019-03-11T02:48:27.522Z,-2.35
2019-03-11T02:51:13.858Z,-2.37
2019-03-11T02:53:44.142Z,-2.35
2019-03-11T02:56:14.454Z,-2.37
2019-03-11T02:58:44.693Z,-2.43
2019-03-11T03:04:43.067Z,-2.43
2019-03-11T03:07:13.303Z,-2.43
2019-03-11T03:12:47.948Z,-2.46
2019-03-11T03:15:18.177Z,-2.52
2019-03-11T03:17:48.419Z,-2.52
2019-03-11T03:20:18.710Z,-2.52
2019-03-11T03:22:48.971Z,-2.57
2019-03-11T03:25:32.776Z,-2.65
2019-03-11T03:31:30.659Z,-2.71
2019-03-11T03:37:07.509Z,-2.69
2019-03-11T03:39:38.065Z,-2.73
2019-03-11T03:42:08.448Z,-2.74
2019-03-11T03:51:07.789Z,-2.82
2019-03-11T03:53:38.052Z,-2.81
2019-03-11T03:56:08.331Z,-2.78
2019-03-11T03:58:56.089Z,-2.81
2019-03-11T04:01:26.386Z,-2.81
2019-03-11T04:03:56.797Z,-2.82
2019-03-11T04:09:32.148Z,-2.91
2019-03-11T04:12:02.514Z,-2.95
2019-03-11T04:17:15.858Z,-2.89
2019-03-11T04:19:47.480Z,-2.89
2019-03-11T04:25:30.908Z,-2.94
2019-03-11T04:28:02.377Z,-2.95
2019-03-11T04:33:43.525Z,-3.01
2019-03-11T04:36:34.269Z,-3.06
2019-03-11T04:39:25.391Z,-3.03
2019-03-11T04:41:55.778Z,-3.12
2019-03-11T04:47:29.251Z,-3.10
2019-03-11T04:50:09.690Z,-3.16
2019-03-11T04:52:59.821Z,-3.15
2019-03-11T04:55:30.573Z,-3.16
2019-03-11T04:58:20.173Z,-3.13
2019-03-11T05:06:50.788Z,-3.18
2019-03-11T05:12:04.534Z,-3.21
2019-03-11T05:14:55.952Z,-3.20
2019-03-11T05:17:48.496Z,-3.19
2019-03-11T05:26:16.194Z,-3.28
2019-03-11T05:28:49.494Z,-3.30
2019-03-11T05:31:27.071Z,-3.24
2019-03-11T05:34:19.297Z,-3.23
2019-03-11T05:39:38.772Z,-3.24
2019-03-11T05:42:16.574Z,-3.16
2019-03-11T05:45:14.558Z,-3.22
2019-03-11T05:47:45.259Z,-3.15
2019-03-11T05:50:40.148Z,-3.15
2019-03-11T05:53:11.249Z,-3.00
2019-03-11T05:58:49.882Z,-2.90
2019-03-11T06:04:08.545Z,-2.61
2019-03-11T06:06:38.974Z,-2.57
2019-03-11T06:09:09.284Z,-2.53
2019-03-11T06:11:39.923Z,-2.34
2019-03-11T06:16:53.718Z,-2.35
2019-03-11T06:19:24.043Z,-2.24
2019-03-11T06:30:35.969Z,-2.17
2019-03-11T06:36:19.098Z,-2.05
2019-03-11T06:39:10.837Z,-1.98
2019-03-11T06:41:41.821Z,-1.90
2019-03-11T06:44:13.679Z,-1.89
2019-03-11T06:46:45.962Z,-1.84
2019-03-11T06:55:34.700Z,-2.00
2019-03-11T06:58:05.890Z,-2.00
2019-03-11T07:00:37.238Z,-1.99
2019-03-11T07:03:31.067Z,-1.89
2019-03-11T07:06:02.633Z,-1.88
2019-03-11T07:08:32.897Z,-1.77
2019-03-11T07:11:24.154Z,-1.75
2019-03-11T07:14:15.348Z,-1.83
2019-03-11T07:19:42.774Z,-1.73
2019-03-11T07:22:19.888Z,-1.85
2019-03-11T07:24:50.321Z,-1.63
2019-03-11T07:27:22.158Z,-1.76
2019-03-11T07:30:11.467Z,-1.69
2019-03-11T07:35:44.138Z,-1.44
2019-03-11T07:41:18.374Z,-1.18
2019-03-11T07:43:48.662Z,-1.10
2019-03-11T07:49:04.645Z,-1.17
2019-03-11T07:51:53.851Z,-1.26
2019-03-11T07:54:32.134Z,-1.20
2019-03-11T07:57:15.206Z,-0.96
2019-03-11T07:59:45.543Z,-1.11
2019-03-11T08:02:18.266Z,-1.17
2019-03-11T08:10:53.610Z,-1.03
2019-03-11T08:16:27.387Z,-0.80
2019-03-11T08:22:00.973Z,-0.94
2019-03-11T08:24:50.535Z,-0.98
2019-03-11T08:27:41.942Z,-0.87
2019-03-11T08:30:24.842Z,-0.68
2019-03-11T08:33:14.756Z,-0.64
2019-03-11T08:39:02.585Z,-0.64
2019-03-11T08:41:34.349Z,-0.68
2019-03-11T08:44:04.658Z,-0.66
2019-03-11T08:46:34.840Z,-0.60
2019-03-11T08:49:04.973Z,-0.68
2019-03-11T08:51:35.098Z,-0.52
2019-03-11T08:54:05.245Z,-0.51
2019-03-11T08:56:35.391Z,-0.50
2019-03-11T08:59:05.569Z,-0.59
2019-03-11T09:01:35.729Z,-0.43
2019-03-11T09:04:06.017Z,-0.34
2019-03-11T09:06:36.144Z,-0.50
2019-03-11T09:11:51.976Z,-0.40
2019-03-11T09:17:11.325Z,-0.32
2019-03-11T09:19:41.424Z,-0.23
2019-03-11T09:22:11.613Z,-0.33
2019-03-11T09:24:41.718Z,-0.32
2019-03-11T09:27:11.846Z,-0.28
2019-03-11T09:29:42.009Z,-0.45
2019-03-11T09:32:12.121Z,-0.53
2019-03-11T09:34:42.257Z,-0.35
2019-03-11T09:37:12.733Z,-0.32
2019-03-11T09:40:02.062Z,-0.40
2019-03-11T09:42:32.753Z,-0.32
2019-03-11T09:45:24.519Z,-0.33
2019-03-11T09:47:54.811Z,-0.30
2019-03-11T09:50:24.940Z,-0.36
2019-03-11T09:52:55.088Z,-0.44
2019-03-11T09:55:25.757Z,-0.48
2019-03-11T09:57:56.076Z,-0.52
2019-03-11T10:00:26.243Z,-0.34
2019-03-11T10:02:56.520Z,-0.25
2019-03-11T10:08:16.263Z,-0.17
2019-03-11T10:11:10.815Z,-0.21
2019-03-11T10:13:41.277Z,-0.24
2019-03-11T10:16:12.164Z,-0.39
2019-03-11T10:19:02.026Z,-0.32
2019-03-11T10:24:15.920Z,-0.36
2019-03-11T10:35:32.547Z,0.18
2019-03-11T10:38:06.654Z,0.05
2019-03-11T10:40:37.052Z,0.33
2019-03-11T10:43:07.380Z,0.29
2019-03-11T10:45:37.915Z,0.28
2019-03-11T10:48:08.251Z,0.40
2019-03-11T10:50:38.519Z,0.48
2019-03-11T10:53:08.822Z,0.59
2019-03-11T10:55:40.733Z,0.53
2019-03-11T10:58:11.109Z,0.52
2019-03-11T11:00:41.353Z,0.38
2019-03-11T11:03:11.623Z,0.58
2019-03-11T11:05:41.912Z,0.68
2019-03-11T11:08:12.353Z,0.48
2019-03-11T11:10:42.863Z,0.81
2019-03-11T11:13:13.124Z,0.87
2019-03-11T11:15:44.977Z,0.97
2019-03-11T11:18:15.214Z,1.05
2019-03-11T11:21:04.393Z,1.30
2019-03-11T11:23:34.647Z,1.38
2019-03-11T11:26:05.374Z,1.37
2019-03-11T11:28:35.735Z,1.38
2019-03-11T11:31:26.445Z,1.48
2019-03-11T11:36:39.702Z,1.56
2019-03-11T11:39:09.907Z,1.74
2019-03-11T11:41:41.657Z,1.81
2019-03-11T11:44:11.795Z,1.94
2019-03-11T11:46:42.074Z,1.97
2019-03-11T11:49:12.196Z,2.16
2019-03-11T11:51:42.420Z,2.14
2019-03-11T11:54:12.534Z,1.94
2019-03-11T11:56:42.665Z,2.24
2019-03-11T11:59:12.923Z,2.32
2019-03-11T12:01:43.082Z,2.61
2019-03-11T12:04:13.681Z,2.66
2019-03-11T12:09:55.811Z,2.91
2019-03-11T12:12:26.207Z,3.13
2019-03-11T12:14:56.324Z,3.19
2019-03-11T12:17:26.493Z,3.36
2019-03-11T12:19:56.609Z,3.48
2019-03-11T12:22:26.814Z,3.07
2019-03-11T12:24:57.015Z,3.05
2019-03-11T12:27:27.149Z,3.12
2019-03-11T12:29:57.472Z,3.07
2019-03-11T12:35:22.299Z,3.20
2019-03-11T12:38:11.625Z,3.19
2019-03-11T12:40:41.822Z,3.29
2019-03-11T12:43:12.138Z,3.31
2019-03-11T12:45:42.302Z,3.41
2019-03-11T12:51:15.525Z,3.47
2019-03-11T12:53:47.088Z,3.44
2019-03-11T12:56:31.251Z,3.47
2019-03-11T12:59:05.340Z,3.25
2019-03-11T13:01:48.716Z,3.43
2019-03-11T13:04:35.718Z,3.61
2019-03-11T13:07:25.846Z,3.29
2019-03-11T13:09:58.916Z,3.46
2019-03-11T13:15:57.315Z,3.49
2019-03-11T13:18:52.332Z,3.60
2019-03-11T13:21:33.369Z,3.67
2019-03-11T13:24:03.560Z,3.75
2019-03-11T13:26:33.691Z,3.78
2019-03-11T13:32:01.038Z,3.84
2019-03-11T13:34:42.461Z,3.67
2019-03-11T13:37:12.698Z,3.61
2019-03-11T13:39:42.928Z,3.65
2019-03-11T13:42:13.170Z,3.81
2019-03-11T13:44:43.348Z,3.91
2019-03-11T13:47:13.558Z,3.72
2019-03-11T13:49:43.772Z,3.90
2019-03-11T13:52:14.013Z,3.92
2019-03-11T13:54:44.292Z,3.80
2019-03-11T13:57:14.521Z,3.68
2019-03-11T14:00:01.960Z,3.58
2019-03-11T14:11:48.778Z,3.42
2019-03-11T14:17:34.882Z,3.50
2019-03-11T14:22:54.066Z,3.45
2019-03-11T14:25:25.191Z,3.15
2019-03-11T14:28:04.714Z,3.18
2019-03-11T14:30:55.861Z,3.04
2019-03-11T14:33:26.151Z,3.05
2019-03-11T14:35:56.392Z,2.80
2019-03-11T14:38:26.672Z,2.71
2019-03-11T14:40:56.904Z,2.65
2019-03-11T14:43:27.263Z,2.66
2019-03-11T14:45:57.886Z,2.66
2019-03-11T14:48:28.214Z,2.54
2019-03-11T14:50:58.581Z,2.52
2019-03-11T14:53:28.840Z,2.62
2019-03-11T14:55:59.162Z,2.50
2019-03-11T14:58:29.905Z,2.63
2019-03-11T15:01:12.327Z,2.60
2019-03-11T15:04:02.048Z,2.73
2019-03-11T15:06:32.596Z,2.75
2019-03-11T15:09:03.128Z,2.70
2019-03-11T15:11:56.004Z,2.40
2019-03-11T15:14:26.209Z,2.40
2019-03-11T15:16:56.523Z,2.35
2019-03-11T15:22:18.503Z,2.23
2019-03-11T15:27:55.733Z,2.36
2019-03-11T15:30:45.632Z,2.28
2019-03-11T15:33:29.370Z,2.28
2019-03-11T15:35:59.691Z,2.20
2019-03-11T15:38:29.873Z,2.25
2019-03-11T15:41:18.496Z,2.13
2019-03-11T15:44:15.192Z,2.20
2019-03-11T15:50:09.157Z,2.05
2019-03-11T15:52:43.056Z,1.90
2019-03-11T15:55:21.700Z,2.00
2019-03-11T16:07:23.307Z,1.83
2019-03-11T16:09:54.464Z,1.82
2019-03-11T16:12:26.432Z,1.73
2019-03-11T16:17:40.168Z,1.72
2019-03-11T16:23:37.165Z,1.58
2019-03-11T16:26:15.854Z,1.52
2019-03-11T16:37:26.641Z,1.45
2019-03-11T16:39:58.643Z,1.42
2019-03-11T16:45:35.742Z,1.34
2019-03-11T16:48:06.340Z,1.17
2019-03-11T16:50:55.858Z,1.19
2019-03-11T16:53:27.097Z,1.14
2019-03-11T16:56:09.428Z,1.19
2019-03-11T16:58:40.098Z,1.17
2019-03-11T17:04:09.446Z,0.99
2019-03-11T17:16:13.601Z,0.83
2019-03-11T17:18:45.828Z,0.89
2019-03-11T17:30:08.238Z,0.49
2019-03-11T17:32:38.797Z,0.48
2019-03-11T17:38:11.433Z,0.48
2019-03-11T17:43:44.719Z,0.47
2019-03-11T17:49:17.837Z,0.45
2019-03-11T17:51:48.304Z,0.44
2019-03-11T17:57:02.342Z,0.38
2019-03-11T18:05:19.001Z,0.30
2019-03-11T18:07:51.551Z,0.30
2019-03-11T18:10:29.384Z,0.32
2019-03-11T18:12:59.656Z,0.29
2019-03-11T18:16:09.370Z,0.26
2019-03-11T18:18:47.053Z,0.27
2019-03-11T18:21:17.383Z,0.25
2019-03-11T18:27:30.682Z,0.23
2019-03-11T18:33:20.401Z,0.21
2019-03-11T18:39:20.037Z,0.18
2019-03-11T18:41:51.547Z,0.12
2019-03-11T18:51:11.015Z,0.07
2019-03-11T18:54:03.853Z,0.03
2019-03-11T18:56:47.193Z,0.00
2019-03-11T19:02:15.248Z,-0.13
2019-03-11T19:07:55.410Z,-0.23
2019-03-11T19:10:57.118Z,-0.30
2019-03-11T19:16:33.790Z,-0.42
2019-03-11T19:21:57.977Z,-0.51
2019-03-11T19:30:24.988Z,-0.56
2019-03-11T19:33:17.942Z,-0.62
2019-03-11T19:53:54.692Z,-0.85
2019-03-11T20:05:34.541Z,-1.01
2019-03-11T20:08:39.789Z,-1.01
2019-03-11T20:11:25.007Z,-1.01
2019-03-11T20:16:52.485Z,-1.04
2019-03-11T20:20:06.272Z,-1.06
2019-03-11T20:25:37.610Z,-1.04
2019-03-11T20:28:47.102Z,-1.12
2019-03-11T20:37:26.856Z,-1.22
2019-03-11T20:40:10.924Z,-1.31
2019-03-11T20:42:53.384Z,-1.27
2019-03-11T20:49:10.780Z,-1.34
2019-03-11T20:51:56.394Z,-1.29
2019-03-11T20:54:57.691Z,-1.30
2019-03-11T20:57:55.085Z,-1.31
2019-03-11T21:07:15.087Z,-1.47
2019-03-11T21:13:09.441Z,-1.49
2019-03-11T21:19:08.141Z,-1.49
2019-03-11T21:22:00.634Z,-1.50
2019-03-11T21:24:59.226Z,-1.52
2019-03-11T21:27:43.447Z,-1.54
2019-03-11T21:30:33.978Z,-1.53
2019-03-11T21:36:34.557Z,-1.62
2019-03-11T21:42:37.731Z,-1.65
2019-03-11T21:51:32.393Z,-1.66
2019-03-11T21:54:05.954Z,-1.69
2019-03-11T21:57:01.800Z,-1.72
2019-03-11T22:03:01.343Z,-1.84
2019-03-11T22:21:03.561Z,-2.16
2019-03-11T22:23:47.552Z,-2.24
2019-03-11T22:33:01.498Z,-2.22
2019-03-11T22:35:49.506Z,-2.35
2019-03-11T22:39:15.164Z,-2.31
2019-03-11T22:42:15.386Z,-2.33
2019-03-11T22:45:34.752Z,-2.31
2019-03-11T22:51:27.421Z,-2.32
2019-03-11T22:57:00.540Z,-2.43
2019-03-11T23:00:00.811Z,-2.41
2019-03-11T23:02:53.478Z,-2.36
2019-03-11T23:05:57.629Z,-2.41
2019-03-11T23:08:45.496Z,-2.41
2019-03-11T23:11:37.470Z,-2.39
2019-03-11T23:20:10.310Z,-2.44
2019-03-11T23:23:21.846Z,-2.41
2019-03-11T23:26:04.694Z,-2.42
2019-03-11T23:28:52.623Z,-2.40
2019-03-11T23:31:52.135Z,-2.44
2019-03-11T23:34:46.224Z,-2.45
2019-03-11T23:37:43.786Z,-2.46
2019-03-11T23:40:31.797Z,-2.49
2019-03-11T23:43:26.242Z,-2.48
